createdAt,value
2018-11-27T00:02:08.280Z,41.83
2018-11-27T00:04:36.476Z,38.87
2018-11-27T00:07:04.708Z,37.83
2018-11-27T00:09:32.880Z,38.97
2018-11-27T00:12:01.095Z,38.43
2018-11-27T00:14:29.293Z,40.53
2018-11-27T00:16:57.929Z,39.53
2018-11-27T00:19:26.124Z,42.43
2018-11-27T00:21:54.313Z,42.00
2018-11-27T00:24:23.294Z,44.80
2018-11-27T00:26:51.446Z,38.97
2018-11-27T00:29:19.649Z,40.07
2018-11-27T00:31:47.946Z,40.13
2018-11-27T00:34:16.114Z,40.13
2018-11-27T00:36:44.369Z,44.60
2018-11-27T00:39:12.786Z,43.50
2018-11-27T00:41:42.174Z,38.67
2018-11-27T00:44:11.035Z,39.43
2018-11-27T00:46:39.788Z,38.00
2018-11-27T00:49:07.988Z,36.13
2018-11-27T00:51:36.183Z,40.37
2018-11-27T00:54:04.362Z,38.57
2018-11-27T00:56:32.552Z,41.47
2018-11-27T00:59:00.812Z,34.80
2018-11-27T01:01:28.961Z,38.27
2018-11-27T01:03:57.165Z,41.27
2018-11-27T01:06:25.341Z,40.23
2018-11-27T01:08:53.732Z,35.33
2018-11-27T01:11:21.944Z,32.80
2018-11-27T01:13:50.225Z,35.00
2018-11-27T01:16:18.429Z,36.17
2018-11-27T01:18:46.649Z,35.03
2018-11-27T01:21:14.781Z,32.60
2018-11-27T01:23:42.952Z,36.93
2018-11-27T01:26:11.163Z,32.93
2018-11-27T01:28:39.367Z,29.70
2018-11-27T01:31:07.521Z,34.17
2018-11-27T01:33:35.690Z,28.43
2018-11-27T01:36:03.896Z,34.30
2018-11-27T01:38:32.097Z,35.13
2018-11-27T01:41:00.302Z,33.60
2018-11-27T01:43:28.546Z,31.47
2018-11-27T01:45:56.818Z,33.50
2018-11-27T01:48:25.507Z,32.00
2018-11-27T01:50:53.660Z,32.87
2018-11-27T01:53:21.842Z,33.33
2018-11-27T01:55:50.066Z,33.30
2018-11-27T01:58:18.213Z,34.37
2018-11-27T02:00:46.437Z,29.93
2018-11-27T02:03:14.620Z,34.33
2018-11-27T02:05:43.549Z,27.67
2018-11-27T02:08:11.801Z,33.13
2018-11-27T02:10:39.976Z,33.00
2018-11-27T02:13:08.160Z,31.73
2018-11-27T02:15:36.930Z,30.17
2018-11-27T02:18:05.141Z,31.20
2018-11-27T02:20:33.431Z,30.83
2018-11-27T02:23:01.665Z,31.40
2018-11-27T02:25:30.286Z,31.17
2018-11-27T02:27:58.533Z,30.17
2018-11-27T02:30:27.581Z,29.77
2018-11-27T02:32:55.834Z,31.77
2018-11-27T02:35:24.988Z,30.60
2018-11-27T02:37:55.746Z,35.33
2018-11-27T02:40:23.960Z,27.40
2018-11-27T02:42:52.197Z,29.13
2018-11-27T02:45:22.236Z,28.83
2018-11-27T02:47:52.018Z,28.50
2018-11-27T02:50:21.244Z,26.37
2018-11-27T02:52:49.413Z,26.23
2018-11-27T02:55:21.089Z,24.17
2018-11-27T02:57:49.341Z,26.47
2018-11-27T03:00:27.121Z,23.73
2018-11-27T03:02:55.754Z,25.63
2018-11-27T03:05:26.101Z,24.47
2018-11-27T03:07:54.300Z,23.97
2018-11-27T03:10:22.491Z,26.83
2018-11-27T03:12:50.761Z,22.03
2018-11-27T03:15:19.055Z,24.13
2018-11-27T03:17:47.484Z,23.57
2018-11-27T03:20:16.718Z,24.30
2018-11-27T03:22:44.898Z,23.03
2018-11-27T03:25:19.085Z,21.70
2018-11-27T03:27:49.178Z,20.43
2018-11-27T03:30:21.295Z,18.57
2018-11-27T03:32:49.722Z,19.90
2018-11-27T03:35:19.757Z,19.57
2018-11-27T03:37:48.191Z,20.93
2018-11-27T03:40:19.288Z,19.90
2018-11-27T03:42:47.526Z,19.37
2018-11-27T03:45:16.219Z,21.77
2018-11-27T03:47:44.530Z,22.63
2018-11-27T03:50:15.035Z,20.57
2018-11-27T03:52:43.738Z,22.70
2018-11-27T03:55:12.641Z,19.53
2018-11-27T03:57:40.836Z,19.70
2018-11-27T04:00:20.310Z,23.60
2018-11-27T04:02:51.638Z,21.23
2018-11-27T04:05:19.971Z,21.30
2018-11-27T04:07:48.157Z,22.13
2018-11-27T04:10:18.469Z,24.77
2018-11-27T04:12:46.628Z,19.70
2018-11-27T04:15:15.046Z,23.13
2018-11-27T04:17:49.557Z,20.90
2018-11-27T04:20:17.861Z,19.97
2018-11-27T04:22:46.001Z,19.70
2018-11-27T04:25:16.097Z,22.13
2018-11-27T04:27:44.900Z,19.73
2018-11-27T04:30:16.106Z,21.10
2018-11-27T04:32:44.337Z,23.23
2018-11-27T04:35:13.488Z,22.77
2018-11-27T04:37:41.659Z,18.77
2018-11-27T04:40:11.110Z,21.07
2018-11-27T04:42:39.351Z,22.17
2018-11-27T04:45:11.241Z,18.63
2018-11-27T04:47:39.477Z,21.43
2018-11-27T04:50:09.734Z,18.43
2018-11-27T04:52:37.945Z,17.83
2018-11-27T04:55:07.534Z,20.30
2018-11-27T04:57:35.708Z,21.37
2018-11-27T05:00:04.162Z,21.70
2018-11-27T05:02:32.478Z,21.47
2018-11-27T05:05:00.687Z,20.10
2018-11-27T05:07:28.844Z,18.57
2018-11-27T05:09:57.045Z,16.37
2018-11-27T05:12:25.816Z,20.33
2018-11-27T05:14:53.997Z,17.23
2018-11-27T05:17:22.192Z,16.47
2018-11-27T05:19:50.384Z,20.50
2018-11-27T05:22:18.830Z,17.87
2018-11-27T05:24:47.034Z,17.17
2018-11-27T05:27:15.174Z,19.20
2018-11-27T05:29:43.350Z,16.47
2018-11-27T05:32:11.540Z,20.83
2018-11-27T05:34:39.797Z,19.20
2018-11-27T05:37:08.037Z,16.33
2018-11-27T05:39:36.178Z,19.17
2018-11-27T05:42:04.341Z,17.50
2018-11-27T05:44:32.543Z,18.00
2018-11-27T05:47:00.712Z,17.93
2018-11-27T05:49:28.869Z,19.93
2018-11-27T05:51:57.017Z,19.57
2018-11-27T05:54:25.186Z,19.33
2018-11-27T05:56:53.398Z,17.80
2018-11-27T05:59:21.604Z,19.90
2018-11-27T06:01:49.809Z,18.90
2018-11-27T06:04:17.981Z,19.57
2018-11-27T06:06:46.163Z,19.60
2018-11-27T06:09:14.400Z,19.53
2018-11-27T06:11:42.637Z,22.50
2018-11-27T06:14:10.786Z,22.03
2018-11-27T06:16:38.985Z,15.67
2018-11-27T06:19:07.229Z,18.70
2018-11-27T06:21:35.488Z,18.07
2018-11-27T06:24:03.664Z,18.43
2018-11-27T06:26:31.861Z,18.93
2018-11-27T06:29:00.051Z,18.37
2018-11-27T06:31:28.208Z,19.07
2018-11-27T06:33:56.394Z,20.70
2018-11-27T06:36:24.602Z,20.63
2018-11-27T06:38:52.829Z,19.93
2018-11-27T06:41:21.037Z,21.07
2018-11-27T06:43:49.190Z,19.63
2018-11-27T06:46:17.461Z,18.03
2018-11-27T06:48:45.628Z,22.67
2018-11-27T06:51:13.788Z,19.07
2018-11-27T06:53:41.976Z,21.50
2018-11-27T06:56:10.151Z,20.00
2018-11-27T06:58:38.337Z,20.93
2018-11-27T07:01:06.628Z,19.00
2018-11-27T07:03:34.865Z,19.93
2018-11-27T07:06:03.036Z,18.50
2018-11-27T07:08:31.217Z,19.27
2018-11-27T07:10:59.369Z,20.87
2018-11-27T07:13:27.587Z,19.60
2018-11-27T07:15:55.864Z,20.80
2018-11-27T07:18:24.016Z,21.10
2018-11-27T07:20:52.749Z,19.07
2018-11-27T07:23:21.001Z,21.00
2018-11-27T07:25:49.254Z,19.67
2018-11-27T07:28:17.445Z,17.20
2018-11-27T07:30:45.706Z,17.10
2018-11-27T07:33:13.868Z,15.93
2018-11-27T07:35:42.064Z,18.63
2018-11-27T07:38:10.316Z,18.27
2018-11-27T07:40:38.485Z,15.13
2018-11-27T07:43:08.501Z,16.37
2018-11-27T07:45:36.697Z,19.13
2018-11-27T07:48:05.368Z,17.27
2018-11-27T07:50:33.549Z,18.93
2018-11-27T07:53:01.720Z,14.17
2018-11-27T07:55:29.886Z,18.67
2018-11-27T07:57:58.056Z,19.50
2018-11-27T08:00:27.209Z,17.23
2018-11-27T08:02:57.394Z,16.07
2018-11-27T08:05:32.540Z,17.30
2018-11-27T08:08:00.781Z,18.17
2018-11-27T08:10:30.214Z,18.43
2018-11-27T08:12:58.529Z,20.07
2018-11-27T08:15:29.709Z,18.13
2018-11-27T08:17:57.943Z,19.27
2018-11-27T08:20:28.316Z,19.47
2018-11-27T08:22:56.524Z,18.40
2018-11-27T08:25:24.686Z,17.00
2018-11-27T08:27:52.846Z,18.67
2018-11-27T08:30:21.673Z,17.53
2018-11-27T08:32:50.096Z,18.50
2018-11-27T08:35:21.524Z,16.97
2018-11-27T08:37:50.747Z,16.47
2018-11-27T08:40:20.850Z,19.10
2018-11-27T08:42:49.049Z,21.17
2018-11-27T08:45:18.387Z,18.27
2018-11-27T08:47:47.329Z,16.83
2018-11-27T08:50:19.861Z,15.50
2018-11-27T08:52:50.069Z,21.27
2018-11-27T08:55:22.817Z,14.77
2018-11-27T08:57:51.512Z,17.63
2018-11-27T09:00:21.848Z,15.27
2018-11-27T09:02:50.054Z,16.97
2018-11-27T09:05:18.292Z,18.97
2018-11-27T09:07:46.848Z,16.93
2018-11-27T09:10:23.060Z,15.97
2018-11-27T09:12:51.300Z,19.73
2018-11-27T09:15:21.472Z,19.50
2018-11-27T09:17:52.652Z,19.83
2018-11-27T09:20:21.007Z,17.47
2018-11-27T09:22:49.133Z,18.37
2018-11-27T09:25:17.398Z,14.77
2018-11-27T09:27:45.671Z,20.33
2018-11-27T09:30:18.044Z,17.70
2018-11-27T09:32:46.230Z,19.20
2018-11-27T09:35:14.377Z,16.60
2018-11-27T09:37:42.564Z,19.17
2018-11-27T09:40:12.976Z,18.27
2018-11-27T09:42:41.270Z,15.40
2018-11-27T09:45:13.041Z,14.37
2018-11-27T09:47:41.696Z,15.57
2018-11-27T09:50:11.405Z,16.30
2018-11-27T09:52:39.647Z,24.90
2018-11-27T09:55:16.256Z,17.87
2018-11-27T09:57:44.571Z,15.20
2018-11-27T10:00:17.861Z,19.60
2018-11-27T10:02:46.097Z,12.47
2018-11-27T10:05:14.678Z,18.40
2018-11-27T10:07:42.962Z,17.43
2018-11-27T10:10:12.260Z,17.77
2018-11-27T10:12:40.438Z,16.67
2018-11-27T10:15:13.458Z,17.60
2018-11-27T10:17:41.753Z,15.13
2018-11-27T10:20:13.557Z,15.43
2018-11-27T10:22:41.743Z,15.63
2018-11-27T10:25:11.125Z,14.90
2018-11-27T10:27:39.392Z,15.13
2018-11-27T10:30:26.361Z,16.00
2018-11-27T10:32:55.758Z,17.37
2018-11-27T10:35:25.952Z,13.53
2018-11-27T10:37:54.136Z,15.00
2018-11-27T10:40:22.412Z,17.77
2018-11-27T10:42:50.850Z,16.53
2018-11-27T10:45:20.086Z,15.57
2018-11-27T10:47:49.324Z,15.87
2018-11-27T10:50:18.180Z,19.40
2018-11-27T10:52:48.521Z,14.27
2018-11-27T10:55:17.503Z,13.93
2018-11-27T10:57:46.475Z,13.93
2018-11-27T11:00:25.966Z,15.83
2018-11-27T11:02:59.594Z,18.67
2018-11-27T11:05:31.727Z,14.07
2018-11-27T11:07:59.983Z,14.03
2018-11-27T11:10:28.202Z,16.47
2018-11-27T11:12:56.415Z,16.70
2018-11-27T11:15:24.570Z,16.13
2018-11-27T11:17:52.741Z,13.73
2018-11-27T11:20:21.321Z,16.37
2018-11-27T11:22:49.557Z,15.50
2018-11-27T11:25:19.929Z,13.13
2018-11-27T11:27:50.891Z,14.83
2018-11-27T11:30:20.850Z,13.77
2018-11-27T11:32:49.040Z,13.60
2018-11-27T11:35:17.225Z,13.77
2018-11-27T11:37:45.395Z,13.57
2018-11-27T11:40:17.527Z,15.60
2018-11-27T11:42:45.669Z,15.90
2018-11-27T11:45:13.817Z,15.30
2018-11-27T11:47:42.269Z,16.83
2018-11-27T11:50:13.733Z,14.17
2018-11-27T11:52:45.339Z,15.77
2018-11-27T11:55:12.434Z,13.00
2018-11-27T11:57:40.573Z,14.03
2018-11-27T12:00:19.389Z,12.63
2018-11-27T12:02:47.617Z,13.40
2018-11-27T12:05:15.681Z,14.03
2018-11-27T12:07:43.838Z,15.57
2018-11-27T12:10:14.025Z,13.13
2018-11-27T12:12:42.968Z,13.20
2018-11-27T12:15:13.305Z,12.57
2018-11-27T12:17:41.757Z,16.67
2018-11-27T12:20:12.146Z,13.90
2018-11-27T12:22:41.178Z,13.10
2018-11-27T12:25:10.485Z,14.07
2018-11-27T12:27:38.701Z,15.20
2018-11-27T12:30:19.833Z,14.90
2018-11-27T12:32:48.030Z,13.13
2018-11-27T12:35:16.870Z,13.53
2018-11-27T12:37:45.050Z,11.53
2018-11-27T12:40:14.908Z,11.13
2018-11-27T12:42:43.709Z,12.60
2018-11-27T12:45:14.937Z,12.07
2018-11-27T12:47:43.347Z,13.80
2018-11-27T12:50:18.568Z,12.63
2018-11-27T12:52:46.716Z,14.67
2018-11-27T12:55:16.116Z,13.73
2018-11-27T12:57:44.325Z,12.70
2018-11-27T13:00:15.776Z,11.63
2018-11-27T13:02:43.947Z,11.77
2018-11-27T13:05:13.476Z,11.17
2018-11-27T13:07:41.805Z,14.87
2018-11-27T13:10:11.628Z,12.07
2018-11-27T13:12:40.005Z,15.20
2018-11-27T13:15:11.832Z,14.17
2018-11-27T13:17:40.727Z,13.50
2018-11-27T13:20:10.761Z,13.97
2018-11-27T13:22:39.240Z,12.43
2018-11-27T13:25:12.755Z,14.10
2018-11-27T13:27:40.919Z,12.37
2018-11-27T13:30:20.411Z,12.30
2018-11-27T13:32:52.462Z,15.50
2018-11-27T13:35:20.752Z,15.10
2018-11-27T13:37:48.956Z,14.20
2018-11-27T13:40:17.153Z,13.60
2018-11-27T13:42:45.352Z,16.30
2018-11-27T13:45:14.640Z,13.97
2018-11-27T13:47:43.120Z,13.10
2018-11-27T13:50:12.456Z,14.77
2018-11-27T13:52:40.717Z,14.10
2018-11-27T13:55:25.005Z,14.23
2018-11-27T13:57:53.202Z,14.03
2018-11-27T14:00:21.373Z,14.07
2018-11-27T14:02:52.050Z,13.13
2018-11-27T14:05:21.429Z,13.67
2018-11-27T14:07:49.588Z,14.23
2018-11-27T14:10:17.768Z,15.40
2018-11-27T14:12:45.945Z,14.10
2018-11-27T14:15:20.016Z,13.97
2018-11-27T14:17:48.438Z,14.57
2018-11-27T14:20:16.660Z,11.27
2018-11-27T14:22:46.043Z,12.70
2018-11-27T14:25:14.588Z,13.93
2018-11-27T14:27:42.982Z,15.00
2018-11-27T14:30:15.455Z,15.27
2018-11-27T14:32:43.827Z,15.30
2018-11-27T14:35:12.617Z,13.87
2018-11-27T14:37:40.833Z,13.47
2018-11-27T14:40:15.339Z,13.20
2018-11-27T14:42:43.618Z,13.43
2018-11-27T14:45:17.935Z,15.53
2018-11-27T14:47:47.434Z,14.63
2018-11-27T14:50:15.615Z,13.17
2018-11-27T14:52:43.862Z,11.77
2018-11-27T14:55:28.146Z,10.43
2018-11-27T14:57:56.393Z,13.07
2018-11-27T15:00:25.301Z,12.77
2018-11-27T15:02:53.709Z,10.93
2018-11-27T15:05:29.981Z,13.13
2018-11-27T15:07:58.130Z,13.67
2018-11-27T15:10:26.353Z,12.93
2018-11-27T15:12:54.646Z,14.00
2018-11-27T15:15:22.919Z,13.47
2018-11-27T15:17:51.080Z,16.33
2018-11-27T15:20:21.246Z,13.30
2018-11-27T15:22:49.422Z,12.97
2018-11-27T15:25:17.793Z,14.33
2018-11-27T15:27:46.188Z,13.90
2018-11-27T15:30:17.597Z,12.37
2018-11-27T15:32:45.970Z,13.17
2018-11-27T15:35:14.488Z,14.70
2018-11-27T15:37:42.831Z,12.90
2018-11-27T15:40:12.457Z,13.43
2018-11-27T15:42:41.316Z,14.70
2018-11-27T15:45:12.030Z,15.03
2018-11-27T15:47:40.257Z,14.57
2018-11-27T15:50:09.596Z,13.40
2018-11-27T15:52:37.791Z,13.93
2018-11-27T15:55:09.961Z,14.13
2018-11-27T15:57:38.173Z,16.87
2018-11-27T16:00:09.535Z,16.40
2018-11-27T16:02:37.749Z,18.07
2018-11-27T16:05:06.217Z,16.30
2018-11-27T16:07:34.530Z,14.37
2018-11-27T16:10:02.672Z,14.97
2018-11-27T16:12:30.840Z,12.83
2018-11-27T16:14:59.045Z,13.67
2018-11-27T16:17:27.189Z,13.70
2018-11-27T16:19:55.378Z,15.43
2018-11-27T16:22:23.577Z,12.17
2018-11-27T16:24:51.819Z,16.40
2018-11-27T16:27:19.941Z,13.87
2018-11-27T16:29:48.207Z,15.17
2018-11-27T16:32:16.402Z,14.67
2018-11-27T16:34:44.620Z,16.43
2018-11-27T16:37:12.798Z,12.50
2018-11-27T16:39:40.998Z,15.13
2018-11-27T16:42:09.140Z,12.10
2018-11-27T16:44:37.297Z,16.70
2018-11-27T16:47:05.695Z,16.40
2018-11-27T16:49:34.424Z,17.90
2018-11-27T16:52:02.582Z,15.23
2018-11-27T16:54:30.885Z,13.47
2018-11-27T16:56:59.105Z,14.77
2018-11-27T16:59:27.282Z,15.43
2018-11-27T17:01:55.557Z,15.93
2018-11-27T17:04:24.654Z,15.97
2018-11-27T17:06:52.868Z,17.33
2018-11-27T17:09:21.106Z,14.07
2018-11-27T17:11:49.257Z,14.30
2018-11-27T17:14:17.499Z,15.97
2018-11-27T17:16:45.761Z,16.27
2018-11-27T17:19:14.020Z,16.97
2018-11-27T17:21:42.287Z,14.17
2018-11-27T17:24:10.451Z,17.03
2018-11-27T17:26:38.633Z,16.03
2018-11-27T17:29:07.640Z,15.60
2018-11-27T17:31:35.930Z,14.17
2018-11-27T17:34:07.756Z,15.87
2018-11-27T17:36:36.241Z,15.70
2018-11-27T17:39:09.382Z,18.40
2018-11-27T17:41:37.542Z,15.80
2018-11-27T17:44:07.180Z,16.90
2018-11-27T17:46:35.325Z,14.23
2018-11-27T17:49:03.556Z,14.90
2018-11-27T17:51:31.711Z,14.63
2018-11-27T17:53:59.890Z,15.53
2018-11-27T17:56:28.093Z,16.73
2018-11-27T17:58:56.257Z,15.57
2018-11-27T18:01:24.431Z,14.03
2018-11-27T18:03:52.643Z,15.77
2018-11-27T18:06:20.890Z,17.90
2018-11-27T18:08:49.049Z,13.73
2018-11-27T18:11:17.245Z,17.60
2018-11-27T18:13:45.926Z,17.37
2018-11-27T18:16:14.830Z,18.03
2018-11-27T18:18:43.092Z,18.87
2018-11-27T18:21:11.232Z,18.97
2018-11-27T18:23:39.414Z,17.90
2018-11-27T18:26:07.594Z,14.60
2018-11-27T18:28:36.017Z,18.07
2018-11-27T18:31:04.288Z,16.90
2018-11-27T18:33:32.508Z,20.30
2018-11-27T18:36:00.657Z,18.10
2018-11-27T18:38:28.872Z,18.63
2018-11-27T18:40:57.269Z,20.80
2018-11-27T18:43:25.476Z,19.73
2018-11-27T18:45:53.682Z,20.07
2018-11-27T18:48:21.855Z,21.40
2018-11-27T18:50:50.106Z,21.37
2018-11-27T18:53:18.328Z,22.73
2018-11-27T18:55:46.529Z,20.67
2018-11-27T18:58:14.765Z,22.33
2018-11-27T19:00:42.971Z,18.93
2018-11-27T19:03:11.237Z,23.20
2018-11-27T19:05:39.513Z,18.63
2018-11-27T19:08:07.846Z,18.43
2018-11-27T19:10:36.096Z,15.63
2018-11-27T19:13:04.817Z,20.83
2018-11-27T19:15:38.478Z,21.67
2018-11-27T19:18:10.206Z,20.03
2018-11-27T19:20:38.486Z,23.77
2018-11-27T19:23:06.697Z,21.40
2018-11-27T19:25:34.942Z,20.83
2018-11-27T19:28:03.134Z,24.37
2018-11-27T19:30:32.382Z,24.77
2018-11-27T19:32:59.565Z,23.07
2018-11-27T19:35:27.829Z,24.70
2018-11-27T19:37:56.050Z,25.37
2018-11-27T19:40:24.434Z,25.97
2018-11-27T19:42:52.635Z,26.80
2018-11-27T19:45:24.415Z,24.87
2018-11-27T19:47:52.802Z,24.87
2018-11-27T19:50:21.097Z,30.10
2018-11-27T19:52:50.685Z,24.97
2018-11-27T19:55:19.296Z,27.40
2018-11-27T19:57:47.538Z,25.13
2018-11-27T20:00:17.207Z,24.33
2018-11-27T20:02:45.474Z,26.30
2018-11-27T20:05:15.126Z,24.73
2018-11-27T20:07:43.334Z,26.00
2018-11-27T20:10:14.280Z,24.10
2018-11-27T20:12:42.558Z,26.00
2018-11-27T20:15:18.944Z,25.47
2018-11-27T20:17:47.998Z,26.87
2018-11-27T20:20:17.938Z,22.57
2018-11-27T20:22:46.210Z,24.23
2018-11-27T20:25:16.286Z,23.07
2018-11-27T20:27:44.795Z,22.97
2018-11-27T20:30:14.750Z,22.63
2018-11-27T20:32:44.399Z,22.07
2018-11-27T20:35:13.846Z,21.17
2018-11-27T20:37:42.307Z,23.47
2018-11-27T20:40:11.934Z,19.90
2018-11-27T20:42:40.131Z,23.57
2018-11-27T20:45:19.306Z,26.57
2018-11-27T20:47:44.908Z,22.87
2018-11-27T20:50:15.745Z,21.10
2018-11-27T20:52:43.994Z,24.37
2018-11-27T20:55:12.400Z,22.93
2018-11-27T20:57:41.646Z,23.17
2018-11-27T21:00:14.622Z,18.87
2018-11-27T21:02:42.980Z,22.00
2018-11-27T21:05:11.390Z,19.87
2018-11-27T21:07:39.573Z,19.50
2018-11-27T21:10:09.847Z,23.50
2018-11-27T21:12:38.070Z,21.87
2018-11-27T21:15:11.326Z,22.93
2018-11-27T21:17:39.596Z,22.50
2018-11-27T21:20:10.079Z,22.47
2018-11-27T21:22:38.634Z,25.37
2018-11-27T21:25:10.744Z,21.63
2018-11-27T21:27:39.046Z,22.87
2018-11-27T21:30:16.457Z,23.33
2018-11-27T21:32:44.909Z,25.17
2018-11-27T21:35:14.403Z,25.87
2018-11-27T21:37:43.293Z,21.33
2018-11-27T21:40:13.409Z,23.60
2018-11-27T21:42:41.674Z,23.77
2018-11-27T21:45:11.597Z,27.57
2018-11-27T21:47:39.874Z,24.27
2018-11-27T21:50:10.154Z,24.07
2018-11-27T21:52:38.417Z,21.57
2018-11-27T21:55:09.867Z,21.77
2018-11-27T21:57:38.579Z,26.37
2018-11-27T22:00:13.082Z,23.70
2018-11-27T22:02:41.392Z,25.93
2018-11-27T22:05:10.239Z,22.40
2018-11-27T22:07:38.431Z,23.83
2018-11-27T22:10:10.608Z,24.00
2018-11-27T22:12:38.805Z,25.23
2018-11-27T22:15:10.399Z,23.47
2018-11-27T22:17:38.631Z,26.67
2018-11-27T22:20:08.944Z,21.53
2018-11-27T22:22:37.116Z,23.37
2018-11-27T22:25:07.022Z,22.73
2018-11-27T22:27:35.435Z,21.70
2018-11-27T22:30:03.682Z,23.43
2018-11-27T22:32:31.946Z,20.07
2018-11-27T22:35:00.173Z,21.97
2018-11-27T22:37:28.329Z,20.43
2018-11-27T22:39:56.529Z,20.57
2018-11-27T22:42:24.730Z,22.20
2018-11-27T22:44:53.094Z,24.87
2018-11-27T22:47:21.298Z,20.63
2018-11-27T22:49:49.606Z,24.33
2018-11-27T22:52:17.785Z,22.13
2018-11-27T22:54:45.995Z,24.00
2018-11-27T22:57:14.214Z,21.23
2018-11-27T22:59:42.530Z,22.50
2018-11-27T23:02:10.774Z,22.73
2018-11-27T23:04:39.043Z,25.20
2018-11-27T23:07:07.223Z,22.50
2018-11-27T23:09:35.461Z,21.80
2018-11-27T23:12:03.676Z,22.63
2018-11-27T23:14:31.906Z,22.30
2018-11-27T23:17:00.106Z,23.23
2018-11-27T23:19:28.318Z,22.20
2018-11-27T23:21:57.069Z,22.50
2018-11-27T23:24:25.253Z,19.87
2018-11-27T23:26:53.392Z,26.90
2018-11-27T23:29:21.551Z,24.53
2018-11-27T23:31:49.691Z,22.97
2018-11-27T23:34:17.881Z,24.33
2018-11-27T23:36:46.077Z,29.43
2018-11-27T23:39:14.229Z,28.47
2018-11-27T23:41:42.372Z,26.60
2018-11-27T23:44:10.531Z,25.13
2018-11-27T23:46:38.708Z,25.03
2018-11-27T23:49:06.869Z,26.50
2018-11-27T23:51:35.033Z,23.07
2018-11-27T23:54:03.188Z,25.17
2018-11-27T23:56:31.321Z,23.00
2018-11-27T23:58:59.486Z,27.00
